sensor_id;sensor_type;location;lat;lon;timestamp;temperature;humidity
25718;DHT22;13574;52.040;5.692;2023-07-30T00:01:51;21.80;99.90
25718;DHT22;13574;52.040;5.692;2023-07-30T00:04:17;21.90;99.90
25718;DHT22;13574;52.040;5.692;2023-07-30T00:06:43;21.80;99.90
25718;DHT22;13574;52.040;5.692;2023-07-30T00:09:09;21.70;99.90
25718;DHT22;13574;52.040;5.692;2023-07-30T00:11:34;21.70;99.90
25718;DHT22;13574;52.040;5.692;2023-07-30T00:14:03;21.70;99.90
25718;DHT22;13574;52.040;5.692;2023-07-30T00:16:31;21.70;99.90
25718;DHT22;13574;52.040;5.692;2023-07-30T00:19:02;21.70;99.90
25718;DHT22;13574;52.040;5.692;2023-07-30T00:21:28;21.70;99.90
25718;DHT22;13574;52.040;5.692;2023-07-30T00:23:54;21.70;99.90
25718;DHT22;13574;52.040;5.692;2023-07-30T00:26:22;21.70;99.90
25718;DHT22;13574;52.040;5.692;2023-07-30T00:28:58;21.60;99.90
25718;DHT22;13574;52.040;5.692;2023-07-30T00:31:24;21.60;99.90
25718;DHT22;13574;52.040;5.692;2023-07-30T00:33:49;21.50;99.90
25718;DHT22;13574;52.040;5.692;2023-07-30T00:36:15;21.40;99.90
25718;DHT22;13574;52.040;5.692;2023-07-30T00:38:46;21.50;99.90
25718;DHT22;13574;52.040;5.692;2023-07-30T00:41:12;21.40;99.90
25718;DHT22;13574;52.040;5.692;2023-07-30T00:43:40;21.50;99.90
25718;DHT22;13574;52.040;5.692;2023-07-30T00:46:08;21.40;99.90
25718;DHT22;13574;52.040;5.692;2023-07-30T00:48:36;21.50;99.90
25718;DHT22;13574;52.040;5.692;2023-07-30T00:51:05;21.60;99.90
25718;DHT22;13574;52.040;5.692;2023-07-30T00:53:32;21.60;99.90
25718;DHT22;13574;52.040;5.692;2023-07-30T00:56:05;21.50;99.90
25718;DHT22;13574;52.040;5.692;2023-07-30T00:58:38;21.50;99.90
25718;DHT22;13574;52.040;5.692;2023-07-30T01:01:05;21.50;99.90
25718;DHT22;13574;52.040;5.692;2023-07-30T01:03:30;21.40;99.90
25718;DHT22;13574;52.040;5.692;2023-07-30T01:05:58;21.50;99.90
25718;DHT22;13574;52.040;5.692;2023-07-30T01:08:26;21.50;99.90
25718;DHT22;13574;52.040;5.692;2023-07-30T01:10:53;21.40;99.90
25718;DHT22;13574;52.040;5.692;2023-07-30T01:13:19;21.50;99.90
25718;DHT22;13574;52.040;5.692;2023-07-30T01:15:50;21.30;99.90
25718;DHT22;13574;52.040;5.692;2023-07-30T01:18:16;21.30;99.90
25718;DHT22;13574;52.040;5.692;2023-07-30T01:20:42;21.40;99.90
25718;DHT22;13574;52.040;5.692;2023-07-30T01:23:07;21.40;99.90
25718;DHT22;13574;52.040;5.692;2023-07-30T01:25:48;21.50;99.90
25718;DHT22;13574;52.040;5.692;2023-07-30T01:28:20;21.50;99.90
25718;DHT22;13574;52.040;5.692;2023-07-30T01:30:50;21.40;99.90
25718;DHT22;13574;52.040;5.692;2023-07-30T01:33:15;21.40;99.90
25718;DHT22;13574;52.040;5.692;2023-07-30T01:35:44;21.40;99.90
25718;DHT22;13574;52.040;5.692;2023-07-30T01:38:10;21.30;99.90
25718;DHT22;13574;52.040;5.692;2023-07-30T01:40:36;21.30;99.90
25718;DHT22;13574;52.040;5.692;2023-07-30T01:43:21;21.20;99.90
25718;DHT22;13574;52.040;5.692;2023-07-30T01:45:47;21.20;99.90
25718;DHT22;13574;52.040;5.692;2023-07-30T01:48:13;21.30;99.90
25718;DHT22;13574;52.040;5.692;2023-07-30T01:50:41;21.30;99.90
25718;DHT22;13574;52.040;5.692;2023-07-30T01:53:11;21.20;99.90
25718;DHT22;13574;52.040;5.692;2023-07-30T01:55:39;21.20;99.90
25718;DHT22;13574;52.040;5.692;2023-07-30T01:58:09;21.10;99.90
25718;DHT22;13574;52.040;5.692;2023-07-30T02:00:35;21.00;99.90
25718;DHT22;13574;52.040;5.692;2023-07-30T02:03:03;21.00;99.90
25718;DHT22;13574;52.040;5.692;2023-07-30T02:05:28;21.00;99.90
25718;DHT22;13574;52.040;5.692;2023-07-30T02:07:54;21.00;99.90
25718;DHT22;13574;52.040;5.692;2023-07-30T02:10:20;20.90;99.90
25718;DHT22;13574;52.040;5.692;2023-07-30T02:12:45;20.90;99.90
25718;DHT22;13574;52.040;5.692;2023-07-30T02:15:11;20.90;99.90
25718;DHT22;13574;52.040;5.692;2023-07-30T02:17:36;20.90;99.90
25718;DHT22;13574;52.040;5.692;2023-07-30T02:20:02;20.90;99.90
25718;DHT22;13574;52.040;5.692;2023-07-30T02:22:28;21.00;99.90
25718;DHT22;13574;52.040;5.692;2023-07-30T02:24:54;21.10;99.90
25718;DHT22;13574;52.040;5.692;2023-07-30T02:27:22;21.10;99.90
25718;DHT22;13574;52.040;5.692;2023-07-30T02:29:48;21.10;99.90
25718;DHT22;13574;52.040;5.692;2023-07-30T02:32:14;21.10;99.90
25718;DHT22;13574;52.040;5.692;2023-07-30T02:34:39;21.10;99.90
25718;DHT22;13574;52.040;5.692;2023-07-30T02:37:05;21.10;99.90
25718;DHT22;13574;52.040;5.692;2023-07-30T02:39:31;21.10;99.90
25718;DHT22;13574;52.040;5.692;2023-07-30T02:41:56;21.20;99.90
25718;DHT22;13574;52.040;5.692;2023-07-30T02:44:22;21.20;99.90
25718;DHT22;13574;52.040;5.692;2023-07-30T02:46:48;21.20;99.90
25718;DHT22;13574;52.040;5.692;2023-07-30T02:49:13;21.00;99.90
25718;DHT22;13574;52.040;5.692;2023-07-30T02:51:42;20.90;99.90
25718;DHT22;13574;52.040;5.692;2023-07-30T02:54:14;20.90;99.90
25718;DHT22;13574;52.040;5.692;2023-07-30T02:56:40;20.90;99.90
25718;DHT22;13574;52.040;5.692;2023-07-30T02:59:05;20.90;99.90
25718;DHT22;13574;52.040;5.692;2023-07-30T03:01:31;21.00;99.90
25718;DHT22;13574;52.040;5.692;2023-07-30T03:03:57;21.00;99.90
25718;DHT22;13574;52.040;5.692;2023-07-30T03:06:22;21.10;99.90
25718;DHT22;13574;52.040;5.692;2023-07-30T03:08:48;21.00;99.90
25718;DHT22;13574;52.040;5.692;2023-07-30T03:11:13;21.00;99.90
25718;DHT22;13574;52.040;5.692;2023-07-30T03:13:39;21.10;99.90
25718;DHT22;13574;52.040;5.692;2023-07-30T03:16:05;21.10;99.90
25718;DHT22;13574;52.040;5.692;2023-07-30T03:18:30;21.10;99.90
25718;DHT22;13574;52.040;5.692;2023-07-30T03:21:00;21.10;99.90
25718;DHT22;13574;52.040;5.692;2023-07-30T03:23:26;21.20;99.90
25718;DHT22;13574;52.040;5.692;2023-07-30T03:25:52;21.20;99.90
25718;DHT22;13574;52.040;5.692;2023-07-30T03:28:18;21.20;99.90
25718;DHT22;13574;52.040;5.692;2023-07-30T03:30:43;21.20;99.90
25718;DHT22;13574;52.040;5.692;2023-07-30T03:33:09;21.10;99.90
25718;DHT22;13574;52.040;5.692;2023-07-30T03:35:34;21.20;99.90
25718;DHT22;13574;52.040;5.692;2023-07-30T03:38:00;21.20;99.90
25718;DHT22;13574;52.040;5.692;2023-07-30T03:40:26;21.10;99.90
25718;DHT22;13574;52.040;5.692;2023-07-30T03:42:52;21.10;99.90
25718;DHT22;13574;52.040;5.692;2023-07-30T03:45:17;21.20;99.90
25718;DHT22;13574;52.040;5.692;2023-07-30T03:47:43;21.20;99.90
25718;DHT22;13574;52.040;5.692;2023-07-30T03:50:09;21.20;99.90
25718;DHT22;13574;52.040;5.692;2023-07-30T03:52:34;21.20;99.90
25718;DHT22;13574;52.040;5.692;2023-07-30T03:55:00;21.30;99.90
25718;DHT22;13574;52.040;5.692;2023-07-30T03:57:26;21.30;99.90
25718;DHT22;13574;52.040;5.692;2023-07-30T03:59:51;21.30;99.90
25718;DHT22;13574;52.040;5.692;2023-07-30T04:02:17;21.30;99.90
25718;DHT22;13574;52.040;5.692;2023-07-30T04:04:43;21.20;99.90
25718;DHT22;13574;52.040;5.692;2023-07-30T04:07:10;21.10;99.90
25718;DHT22;13574;52.040;5.692;2023-07-30T04:09:36;21.10;99.90
25718;DHT22;13574;52.040;5.692;2023-07-30T04:12:02;21.20;99.90
25718;DHT22;13574;52.040;5.692;2023-07-30T04:14:27;21.20;99.90
25718;DHT22;13574;52.040;5.692;2023-07-30T04:16:53;21.20;99.90
25718;DHT22;13574;52.040;5.692;2023-07-30T04:19:19;21.20;99.90
25718;DHT22;13574;52.040;5.692;2023-07-30T04:21:45;21.20;99.90
25718;DHT22;13574;52.040;5.692;2023-07-30T04:24:10;21.30;99.90
25718;DHT22;13574;52.040;5.692;2023-07-30T04:26:36;21.20;99.90
25718;DHT22;13574;52.040;5.692;2023-07-30T04:29:01;21.20;99.90
25718;DHT22;13574;52.040;5.692;2023-07-30T04:31:27;21.20;99.90
25718;DHT22;13574;52.040;5.692;2023-07-30T04:33:53;21.30;99.90
25718;DHT22;13574;52.040;5.692;2023-07-30T04:36:18;21.30;99.90
25718;DHT22;13574;52.040;5.692;2023-07-30T04:38:44;21.30;99.90
25718;DHT22;13574;52.040;5.692;2023-07-30T04:41:10;21.20;99.90
25718;DHT22;13574;52.040;5.692;2023-07-30T04:43:35;21.30;99.90
25718;DHT22;13574;52.040;5.692;2023-07-30T04:46:01;21.30;99.90
25718;DHT22;13574;52.040;5.692;2023-07-30T04:48:26;21.10;99.90
25718;DHT22;13574;52.040;5.692;2023-07-30T04:50:52;21.20;99.90
25718;DHT22;13574;52.040;5.692;2023-07-30T04:53:18;21.20;99.90
25718;DHT22;13574;52.040;5.692;2023-07-30T04:55:46;21.20;99.90
25718;DHT22;13574;52.040;5.692;2023-07-30T04:58:11;21.20;99.90
25718;DHT22;13574;52.040;5.692;2023-07-30T05:00:37;21.30;99.90
25718;DHT22;13574;52.040;5.692;2023-07-30T05:03:02;21.40;99.90
25718;DHT22;13574;52.040;5.692;2023-07-30T05:05:28;21.40;99.90
25718;DHT22;13574;52.040;5.692;2023-07-30T05:07:54;21.30;99.90
25718;DHT22;13574;52.040;5.692;2023-07-30T05:10:20;21.30;99.90
25718;DHT22;13574;52.040;5.692;2023-07-30T05:12:45;21.40;99.90
25718;DHT22;13574;52.040;5.692;2023-07-30T05:15:11;21.50;99.90
25718;DHT22;13574;52.040;5.692;2023-07-30T05:17:36;21.50;99.90
25718;DHT22;13574;52.040;5.692;2023-07-30T05:20:02;21.50;99.90
25718;DHT22;13574;52.040;5.692;2023-07-30T05:22:28;21.70;99.90
25718;DHT22;13574;52.040;5.692;2023-07-30T05:24:54;21.50;99.90
25718;DHT22;13574;52.040;5.692;2023-07-30T05:27:19;21.50;99.90
25718;DHT22;13574;52.040;5.692;2023-07-30T05:29:45;21.60;99.90
25718;DHT22;13574;52.040;5.692;2023-07-30T05:32:10;21.60;99.90
25718;DHT22;13574;52.040;5.692;2023-07-30T05:34:38;21.50;99.90
25718;DHT22;13574;52.040;5.692;2023-07-30T05:37:03;21.60;99.90
25718;DHT22;13574;52.040;5.692;2023-07-30T05:39:29;21.60;99.90
25718;DHT22;13574;52.040;5.692;2023-07-30T05:41:54;21.60;99.90
25718;DHT22;13574;52.040;5.692;2023-07-30T05:44:20;21.80;99.90
25718;DHT22;13574;52.040;5.692;2023-07-30T05:46:46;21.80;99.90
25718;DHT22;13574;52.040;5.692;2023-07-30T05:49:12;22.00;99.90
25718;DHT22;13574;52.040;5.692;2023-07-30T05:51:37;22.10;99.90
25718;DHT22;13574;52.040;5.692;2023-07-30T05:54:03;22.10;99.90
25718;DHT22;13574;52.040;5.692;2023-07-30T05:56:29;22.00;99.90
25718;DHT22;13574;52.040;5.692;2023-07-30T05:58:54;22.00;99.90
25718;DHT22;13574;52.040;5.692;2023-07-30T06:01:20;22.00;99.90
25718;DHT22;13574;52.040;5.692;2023-07-30T06:03:45;22.10;99.90
25718;DHT22;13574;52.040;5.692;2023-07-30T06:06:11;22.20;99.90
25718;DHT22;13574;52.040;5.692;2023-07-30T06:08:37;22.20;99.90
25718;DHT22;13574;52.040;5.692;2023-07-30T06:11:03;22.30;99.90
25718;DHT22;13574;52.040;5.692;2023-07-30T06:13:29;22.50;99.90
25718;DHT22;13574;52.040;5.692;2023-07-30T06:15:55;22.70;99.90
25718;DHT22;13574;52.040;5.692;2023-07-30T06:18:21;22.70;99.90
25718;DHT22;13574;52.040;5.692;2023-07-30T06:20:46;22.60;99.90
25718;DHT22;13574;52.040;5.692;2023-07-30T06:23:12;22.70;99.90
25718;DHT22;13574;52.040;5.692;2023-07-30T06:25:38;22.50;99.90
25718;DHT22;13574;52.040;5.692;2023-07-30T06:28:05;22.60;99.90
25718;DHT22;13574;52.040;5.692;2023-07-30T06:30:32;22.80;99.90
25718;DHT22;13574;52.040;5.692;2023-07-30T06:32:58;22.80;99.90
25718;DHT22;13574;52.040;5.692;2023-07-30T06:35:23;22.80;99.90
25718;DHT22;13574;52.040;5.692;2023-07-30T06:37:50;22.80;99.90
25718;DHT22;13574;52.040;5.692;2023-07-30T06:40:16;22.90;99.90
25718;DHT22;13574;52.040;5.692;2023-07-30T06:42:41;22.90;99.90
25718;DHT22;13574;52.040;5.692;2023-07-30T06:45:08;22.90;99.90
25718;DHT22;13574;52.040;5.692;2023-07-30T06:47:33;22.70;99.90
25718;DHT22;13574;52.040;5.692;2023-07-30T06:49:59;22.90;99.90
25718;DHT22;13574;52.040;5.692;2023-07-30T06:52:24;23.20;99.90
25718;DHT22;13574;52.040;5.692;2023-07-30T06:54:50;23.30;99.90
25718;DHT22;13574;52.040;5.692;2023-07-30T06:57:16;23.40;99.90
25718;DHT22;13574;52.040;5.692;2023-07-30T06:59:42;23.40;99.90
25718;DHT22;13574;52.040;5.692;2023-07-30T07:02:07;23.40;99.90
25718;DHT22;13574;52.040;5.692;2023-07-30T07:04:33;23.70;99.90
25718;DHT22;13574;52.040;5.692;2023-07-30T07:06:58;23.60;99.90
25718;DHT22;13574;52.040;5.692;2023-07-30T07:09:24;23.80;99.90
25718;DHT22;13574;52.040;5.692;2023-07-30T07:11:50;23.80;99.90
25718;DHT22;13574;52.040;5.692;2023-07-30T07:14:15;23.50;99.90
25718;DHT22;13574;52.040;5.692;2023-07-30T07:16:41;23.50;99.90
25718;DHT22;13574;52.040;5.692;2023-07-30T07:19:07;23.30;99.90
25718;DHT22;13574;52.040;5.692;2023-07-30T07:21:32;23.50;99.90
25718;DHT22;13574;52.040;5.692;2023-07-30T07:23:58;23.70;99.90
25718;DHT22;13574;52.040;5.692;2023-07-30T07:26:24;23.50;99.90
25718;DHT22;13574;52.040;5.692;2023-07-30T07:28:49;23.50;99.90
25718;DHT22;13574;52.040;5.692;2023-07-30T07:31:15;23.50;99.90
25718;DHT22;13574;52.040;5.692;2023-07-30T07:33:41;23.40;99.90
25718;DHT22;13574;52.040;5.692;2023-07-30T07:36:09;23.40;99.90
25718;DHT22;13574;52.040;5.692;2023-07-30T07:38:35;23.20;99.90
25718;DHT22;13574;52.040;5.692;2023-07-30T07:41:01;23.30;99.90
25718;DHT22;13574;52.040;5.692;2023-07-30T07:43:27;23.20;99.90
25718;DHT22;13574;52.040;5.692;2023-07-30T07:45:53;23.40;99.90
25718;DHT22;13574;52.040;5.692;2023-07-30T07:48:19;23.50;99.90
25718;DHT22;13574;52.040;5.692;2023-07-30T07:50:45;23.30;99.90
25718;DHT22;13574;52.040;5.692;2023-07-30T07:53:10;23.10;99.90
25718;DHT22;13574;52.040;5.692;2023-07-30T07:55:36;23.20;99.90
25718;DHT22;13574;52.040;5.692;2023-07-30T07:58:02;23.30;99.90
25718;DHT22;13574;52.040;5.692;2023-07-30T08:00:28;23.40;99.90
25718;DHT22;13574;52.040;5.692;2023-07-30T08:02:53;23.60;99.90
25718;DHT22;13574;52.040;5.692;2023-07-30T08:05:19;23.30;99.90
25718;DHT22;13574;52.040;5.692;2023-07-30T08:07:48;23.50;99.90
25718;DHT22;13574;52.040;5.692;2023-07-30T08:10:13;23.80;99.90
25718;DHT22;13574;52.040;5.692;2023-07-30T08:12:39;24.00;99.90
25718;DHT22;13574;52.040;5.692;2023-07-30T08:15:05;24.30;99.90
25718;DHT22;13574;52.040;5.692;2023-07-30T08:17:31;24.50;99.90
25718;DHT22;13574;52.040;5.692;2023-07-30T08:19:57;24.70;99.90
25718;DHT22;13574;52.040;5.692;2023-07-30T08:22:23;24.70;99.90
25718;DHT22;13574;52.040;5.692;2023-07-30T08:24:48;25.10;99.90
25718;DHT22;13574;52.040;5.692;2023-07-30T08:27:14;26.00;99.90
25718;DHT22;13574;52.040;5.692;2023-07-30T08:29:40;26.90;99.50
25718;DHT22;13574;52.040;5.692;2023-07-30T08:32:06;28.00;97.60
25718;DHT22;13574;52.040;5.692;2023-07-30T08:34:32;29.20;95.60
25718;DHT22;13574;52.040;5.692;2023-07-30T08:36:57;29.80;94.40
25718;DHT22;13574;52.040;5.692;2023-07-30T08:39:23;30.80;92.90
25718;DHT22;13574;52.040;5.692;2023-07-30T08:41:49;31.90;91.40
25718;DHT22;13574;52.040;5.692;2023-07-30T08:44:17;31.30;91.30
25718;DHT22;13574;52.040;5.692;2023-07-30T08:46:43;31.30;91.10
25718;DHT22;13574;52.040;5.692;2023-07-30T08:49:09;31.00;91.20
25718;DHT22;13574;52.040;5.692;2023-07-30T08:51:36;30.50;91.20
25718;DHT22;13574;52.040;5.692;2023-07-30T08:54:06;29.40;91.20
25718;DHT22;13574;52.040;5.692;2023-07-30T08:56:32;28.40;92.50
25718;DHT22;13574;52.040;5.692;2023-07-30T08:58:59;27.90;93.50
25718;DHT22;13574;52.040;5.692;2023-07-30T09:01:35;27.50;93.60
25718;DHT22;13574;52.040;5.692;2023-07-30T09:04:02;26.80;94.50
25718;DHT22;13574;52.040;5.692;2023-07-30T09:06:28;26.70;94.80
25718;DHT22;13574;52.040;5.692;2023-07-30T09:08:54;26.50;95.20
25718;DHT22;13574;52.040;5.692;2023-07-30T09:11:25;26.50;95.50
25718;DHT22;13574;52.040;5.692;2023-07-30T09:13:53;26.60;95.40
25718;DHT22;13574;52.040;5.692;2023-07-30T09:16:25;26.60;95.50
25718;DHT22;13574;52.040;5.692;2023-07-30T09:18:51;26.20;95.80
25718;DHT22;13574;52.040;5.692;2023-07-30T09:21:19;25.90;96.10
25718;DHT22;13574;52.040;5.692;2023-07-30T09:23:48;25.20;97.30
25718;DHT22;13574;52.040;5.692;2023-07-30T09:26:14;25.40;96.90
25718;DHT22;13574;52.040;5.692;2023-07-30T09:28:40;25.40;97.30
25718;DHT22;13574;52.040;5.692;2023-07-30T09:31:07;26.20;97.00
25718;DHT22;13574;52.040;5.692;2023-07-30T09:33:33;27.30;95.20
25718;DHT22;13574;52.040;5.692;2023-07-30T09:36:03;27.40;94.90
25718;DHT22;13574;52.040;5.692;2023-07-30T09:38:29;27.50;94.80
25718;DHT22;13574;52.040;5.692;2023-07-30T09:41:02;28.20;93.90
25718;DHT22;13574;52.040;5.692;2023-07-30T09:43:34;27.80;94.20
25718;DHT22;13574;52.040;5.692;2023-07-30T09:46:05;28.10;93.30
25718;DHT22;13574;52.040;5.692;2023-07-30T09:48:32;29.10;93.00
25718;DHT22;13574;52.040;5.692;2023-07-30T09:51:02;29.80;91.90
25718;DHT22;13574;52.040;5.692;2023-07-30T09:53:32;30.50;91.20
25718;DHT22;13574;52.040;5.692;2023-07-30T09:56:02;31.00;89.30
25718;DHT22;13574;52.040;5.692;2023-07-30T09:58:29;30.80;89.20
25718;DHT22;13574;52.040;5.692;2023-07-30T10:00:57;30.40;88.50
25718;DHT22;13574;52.040;5.692;2023-07-30T10:03:24;30.20;88.70
25718;DHT22;13574;52.040;5.692;2023-07-30T10:05:51;29.60;90.00
25718;DHT22;13574;52.040;5.692;2023-07-30T10:08:21;29.00;90.20
25718;DHT22;13574;52.040;5.692;2023-07-30T10:10:48;28.80;90.30
25718;DHT22;13574;52.040;5.692;2023-07-30T10:13:15;28.40;90.80
25718;DHT22;13574;52.040;5.692;2023-07-30T10:15:43;27.80;91.10
25718;DHT22;13574;52.040;5.692;2023-07-30T10:18:09;27.50;92.00
25718;DHT22;13574;52.040;5.692;2023-07-30T10:20:35;27.60;92.30
25718;DHT22;13574;52.040;5.692;2023-07-30T10:23:01;27.50;93.00
25718;DHT22;13574;52.040;5.692;2023-07-30T10:25:46;27.80;92.40
25718;DHT22;13574;52.040;5.692;2023-07-30T10:28:32;27.20;93.10
25718;DHT22;13574;52.040;5.692;2023-07-30T10:31:05;27.50;93.10
25718;DHT22;13574;52.040;5.692;2023-07-30T10:33:50;26.60;93.60
25718;DHT22;13574;52.040;5.692;2023-07-30T10:36:33;26.60;94.10
25718;DHT22;13574;52.040;5.692;2023-07-30T10:39:25;26.30;94.40
25718;DHT22;13574;52.040;5.692;2023-07-30T10:41:55;26.80;95.00
25718;DHT22;13574;52.040;5.692;2023-07-30T10:44:27;28.10;93.80
25718;DHT22;13574;52.040;5.692;2023-07-30T10:46:57;28.00;92.90
25718;DHT22;13574;52.040;5.692;2023-07-30T10:49:23;28.00;92.70
25718;DHT22;13574;52.040;5.692;2023-07-30T10:51:51;28.20;93.00
25718;DHT22;13574;52.040;5.692;2023-07-30T10:54:18;28.10;92.90
25718;DHT22;13574;52.040;5.692;2023-07-30T10:56:44;27.50;93.10
25718;DHT22;13574;52.040;5.692;2023-07-30T10:59:11;26.90;93.30
25718;DHT22;13574;52.040;5.692;2023-07-30T11:01:45;26.90;94.00
25718;DHT22;13574;52.040;5.692;2023-07-30T11:06:49;25.40;95.20
25718;DHT22;13574;52.040;5.692;2023-07-30T11:09:26;25.70;95.90
25718;DHT22;13574;52.040;5.692;2023-07-30T11:11:55;25.80;95.00
25718;DHT22;13574;52.040;5.692;2023-07-30T11:14:24;25.10;95.20
25718;DHT22;13574;52.040;5.692;2023-07-30T11:16:55;25.30;95.20
25718;DHT22;13574;52.040;5.692;2023-07-30T11:19:24;25.10;95.70
25718;DHT22;13574;52.040;5.692;2023-07-30T11:21:51;25.00;95.30
25718;DHT22;13574;52.040;5.692;2023-07-30T11:24:17;24.90;95.60
25718;DHT22;13574;52.040;5.692;2023-07-30T11:26:43;24.70;96.20
25718;DHT22;13574;52.040;5.692;2023-07-30T11:29:18;25.00;96.50
25718;DHT22;13574;52.040;5.692;2023-07-30T11:31:45;25.30;96.10
25718;DHT22;13574;52.040;5.692;2023-07-30T11:34:15;24.90;95.60
25718;DHT22;13574;52.040;5.692;2023-07-30T11:36:41;24.90;96.10
25718;DHT22;13574;52.040;5.692;2023-07-30T11:39:07;24.90;96.20
25718;DHT22;13574;52.040;5.692;2023-07-30T11:41:33;25.00;96.10
25718;DHT22;13574;52.040;5.692;2023-07-30T11:44:04;25.40;95.80
25718;DHT22;13574;52.040;5.692;2023-07-30T11:46:32;26.50;95.20
25718;DHT22;13574;52.040;5.692;2023-07-30T11:49:12;26.70;93.10
25718;DHT22;13574;52.040;5.692;2023-07-30T11:51:39;27.10;92.60
25718;DHT22;13574;52.040;5.692;2023-07-30T11:54:20;26.30;91.80
25718;DHT22;13574;52.040;5.692;2023-07-30T11:57:07;25.90;91.80
25718;DHT22;13574;52.040;5.692;2023-07-30T11:59:40;25.30;92.50
25718;DHT22;13574;52.040;5.692;2023-07-30T12:02:09;25.30;92.80
25718;DHT22;13574;52.040;5.692;2023-07-30T12:04:45;25.10;92.90
25718;DHT22;13574;52.040;5.692;2023-07-30T12:07:10;25.50;92.80
25718;DHT22;13574;52.040;5.692;2023-07-30T12:09:36;25.10;92.90
25718;DHT22;13574;52.040;5.692;2023-07-30T12:12:04;24.80;93.00
25718;DHT22;13574;52.040;5.692;2023-07-30T12:17:34;24.90;93.60
25718;DHT22;13574;52.040;5.692;2023-07-30T12:20:10;25.10;93.50
25718;DHT22;13574;52.040;5.692;2023-07-30T12:22:36;25.30;94.40
25718;DHT22;13574;52.040;5.692;2023-07-30T12:25:13;25.10;93.00
25718;DHT22;13574;52.040;5.692;2023-07-30T12:27:46;25.00;93.10
25718;DHT22;13574;52.040;5.692;2023-07-30T12:30:12;25.40;92.90
25718;DHT22;13574;52.040;5.692;2023-07-30T12:32:49;25.50;93.30
25718;DHT22;13574;52.040;5.692;2023-07-30T12:35:17;25.40;92.50
25718;DHT22;13574;52.040;5.692;2023-07-30T12:37:46;25.00;93.30
25718;DHT22;13574;52.040;5.692;2023-07-30T12:40:14;24.90;93.90
25718;DHT22;13574;52.040;5.692;2023-07-30T12:42:42;25.10;94.50
25718;DHT22;13574;52.040;5.692;2023-07-30T12:45:08;25.10;94.00
25718;DHT22;13574;52.040;5.692;2023-07-30T12:47:33;24.90;94.10
25718;DHT22;13574;52.040;5.692;2023-07-30T12:50:04;24.50;94.70
25718;DHT22;13574;52.040;5.692;2023-07-30T12:52:33;24.80;95.00
25718;DHT22;13574;52.040;5.692;2023-07-30T12:55:02;24.90;95.20
25718;DHT22;13574;52.040;5.692;2023-07-30T12:57:32;24.80;95.20
25718;DHT22;13574;52.040;5.692;2023-07-30T13:00:01;25.00;95.10
25718;DHT22;13574;52.040;5.692;2023-07-30T13:02:30;25.00;95.10
25718;DHT22;13574;52.040;5.692;2023-07-30T13:05:04;25.30;95.20
25718;DHT22;13574;52.040;5.692;2023-07-30T13:07:30;25.60;94.70
25718;DHT22;13574;52.040;5.692;2023-07-30T13:10:10;25.40;94.30
25718;DHT22;13574;52.040;5.692;2023-07-30T13:12:40;25.30;93.70
25718;DHT22;13574;52.040;5.692;2023-07-30T13:15:07;25.30;92.60
25718;DHT22;13574;52.040;5.692;2023-07-30T13:17:36;25.20;93.20
25718;DHT22;13574;52.040;5.692;2023-07-30T13:20:08;25.40;93.00
25718;DHT22;13574;52.040;5.692;2023-07-30T13:22:33;25.30;92.40
25718;DHT22;13574;52.040;5.692;2023-07-30T13:24:59;25.10;93.10
25718;DHT22;13574;52.040;5.692;2023-07-30T13:27:27;25.10;92.70
25718;DHT22;13574;52.040;5.692;2023-07-30T13:29:53;25.20;92.80
25718;DHT22;13574;52.040;5.692;2023-07-30T13:32:18;25.30;92.90
25718;DHT22;13574;52.040;5.692;2023-07-30T13:34:44;25.40;92.30
25718;DHT22;13574;52.040;5.692;2023-07-30T13:37:09;25.30;92.30
25718;DHT22;13574;52.040;5.692;2023-07-30T13:39:38;25.10;91.80
25718;DHT22;13574;52.040;5.692;2023-07-30T13:42:07;25.30;91.10
25718;DHT22;13574;52.040;5.692;2023-07-30T13:44:33;25.40;91.20
25718;DHT22;13574;52.040;5.692;2023-07-30T13:46:58;25.20;90.50
25718;DHT22;13574;52.040;5.692;2023-07-30T13:49:24;25.00;90.70
25718;DHT22;13574;52.040;5.692;2023-07-30T13:51:49;25.10;91.20
25718;DHT22;13574;52.040;5.692;2023-07-30T13:54:15;25.00;90.60
25718;DHT22;13574;52.040;5.692;2023-07-30T13:56:41;25.10;90.70
25718;DHT22;13574;52.040;5.692;2023-07-30T13:59:06;24.90;91.20
25718;DHT22;13574;52.040;5.692;2023-07-30T14:01:32;24.70;91.10
25718;DHT22;13574;52.040;5.692;2023-07-30T14:03:58;24.50;91.10
25718;DHT22;13574;52.040;5.692;2023-07-30T14:06:23;24.50;91.40
25718;DHT22;13574;52.040;5.692;2023-07-30T14:08:49;24.50;91.00
25718;DHT22;13574;52.040;5.692;2023-07-30T14:11:15;24.50;91.80
25718;DHT22;13574;52.040;5.692;2023-07-30T14:13:40;24.50;90.60
25718;DHT22;13574;52.040;5.692;2023-07-30T14:16:06;24.80;90.50
25718;DHT22;13574;52.040;5.692;2023-07-30T14:18:32;25.00;90.40
25718;DHT22;13574;52.040;5.692;2023-07-30T14:20:58;25.20;90.40
25718;DHT22;13574;52.040;5.692;2023-07-30T14:23:24;25.20;90.20
25718;DHT22;13574;52.040;5.692;2023-07-30T14:25:49;25.40;90.50
25718;DHT22;13574;52.040;5.692;2023-07-30T14:28:15;25.30;90.20
25718;DHT22;13574;52.040;5.692;2023-07-30T14:30:41;25.30;90.70
25718;DHT22;13574;52.040;5.692;2023-07-30T14:33:10;25.20;91.20
25718;DHT22;13574;52.040;5.692;2023-07-30T14:35:36;25.30;90.50
25718;DHT22;13574;52.040;5.692;2023-07-30T14:38:04;25.20;90.10
25718;DHT22;13574;52.040;5.692;2023-07-30T14:40:30;25.00;90.60
25718;DHT22;13574;52.040;5.692;2023-07-30T14:42:56;25.10;90.70
25718;DHT22;13574;52.040;5.692;2023-07-30T14:45:21;25.00;91.20
25718;DHT22;13574;52.040;5.692;2023-07-30T14:47:47;25.30;91.30
25718;DHT22;13574;52.040;5.692;2023-07-30T14:50:13;25.40;90.90
25718;DHT22;13574;52.040;5.692;2023-07-30T14:52:39;25.10;91.30
25718;DHT22;13574;52.040;5.692;2023-07-30T14:55:05;24.90;90.90
25718;DHT22;13574;52.040;5.692;2023-07-30T14:57:30;25.00;90.80
25718;DHT22;13574;52.040;5.692;2023-07-30T14:59:58;25.00;91.10
25718;DHT22;13574;52.040;5.692;2023-07-30T15:02:26;25.00;90.70
25718;DHT22;13574;52.040;5.692;2023-07-30T15:04:52;24.80;91.30
25718;DHT22;13574;52.040;5.692;2023-07-30T15:07:17;24.80;91.30
25718;DHT22;13574;52.040;5.692;2023-07-30T15:09:43;25.10;91.10
25718;DHT22;13574;52.040;5.692;2023-07-30T15:12:11;25.30;90.30
25718;DHT22;13574;52.040;5.692;2023-07-30T15:14:36;25.40;90.70
25718;DHT22;13574;52.040;5.692;2023-07-30T15:17:02;25.40;90.50
25718;DHT22;13574;52.040;5.692;2023-07-30T15:19:28;25.40;90.60
25718;DHT22;13574;52.040;5.692;2023-07-30T15:21:54;25.20;90.10
25718;DHT22;13574;52.040;5.692;2023-07-30T15:24:19;25.10;90.20
25718;DHT22;13574;52.040;5.692;2023-07-30T15:26:45;25.20;90.20
25718;DHT22;13574;52.040;5.692;2023-07-30T15:29:11;25.30;90.40
25718;DHT22;13574;52.040;5.692;2023-07-30T15:31:36;25.40;90.90
25718;DHT22;13574;52.040;5.692;2023-07-30T15:34:03;25.70;90.60
25718;DHT22;13574;52.040;5.692;2023-07-30T15:36:29;25.40;90.10